sensor_id;sensor_type;location;lat;lon;timestamp;P1;durP1;ratioP1;P2;durP2;ratioP2
42194;SDS011;27863;49.440;11.102;2023-11-22T00:01:17;4.27;;;3.87;;
42194;SDS011;27863;49.440;11.102;2023-11-22T00:04:19;4.97;;;4.17;;
42194;SDS011;27863;49.440;11.102;2023-11-22T00:07:20;3.20;;;2.90;;
42194;SDS011;27863;49.440;11.102;2023-11-22T00:10:21;4.30;;;3.90;;
42194;SDS011;27863;49.440;11.102;2023-11-22T00:13:21;3.23;;;2.93;;
42194;SDS011;27863;49.440;11.102;2023-11-22T00:16:22;4.97;;;3.70;;
42194;SDS011;27863;49.440;11.102;2023-11-22T00:19:24;3.30;;;3.00;;
42194;SDS011;27863;49.440;11.102;2023-11-22T00:22:24;2.73;;;2.53;;
42194;SDS011;27863;49.440;11.102;2023-11-22T00:25:27;2.57;;;2.37;;
42194;SDS011;27863;49.440;11.102;2023-11-22T00:28:27;2.70;;;2.50;;
42194;SDS011;27863;49.440;11.102;2023-11-22T00:31:28;2.37;;;2.17;;
42194;SDS011;27863;49.440;11.102;2023-11-22T00:34:29;2.87;;;2.43;;
42194;SDS011;27863;49.440;11.102;2023-11-22T00:37:30;2.90;;;2.60;;
42194;SDS011;27863;49.440;11.102;2023-11-22T00:40:32;2.73;;;2.43;;
42194;SDS011;27863;49.440;11.102;2023-11-22T00:43:33;3.43;;;3.00;;
42194;SDS011;27863;49.440;11.102;2023-11-22T00:46:34;3.47;;;3.17;;
42194;SDS011;27863;49.440;11.102;2023-11-22T00:49:34;4.23;;;3.83;;
42194;SDS011;27863;49.440;11.102;2023-11-22T00:52:34;4.03;;;3.70;;
42194;SDS011;27863;49.440;11.102;2023-11-22T00:55:35;3.13;;;2.83;;
42194;SDS011;27863;49.440;11.102;2023-11-22T00:58:36;3.63;;;3.33;;
42194;SDS011;27863;49.440;11.102;2023-11-22T01:01:37;3.47;;;3.00;;
42194;SDS011;27863;49.440;11.102;2023-11-22T01:04:37;5.13;;;4.63;;
42194;SDS011;27863;49.440;11.102;2023-11-22T01:07:38;4.07;;;3.70;;
42194;SDS011;27863;49.440;11.102;2023-11-22T01:10:39;3.53;;;3.13;;
42194;SDS011;27863;49.440;11.102;2023-11-22T01:13:39;3.30;;;3.00;;
42194;SDS011;27863;49.440;11.102;2023-11-22T01:16:43;2.73;;;2.23;;
42194;SDS011;27863;49.440;11.102;2023-11-22T01:19:43;2.50;;;2.30;;
42194;SDS011;27863;49.440;11.102;2023-11-22T01:22:44;2.77;;;2.57;;
42194;SDS011;27863;49.440;11.102;2023-11-22T01:25:45;2.50;;;2.30;;
42194;SDS011;27863;49.440;11.102;2023-11-22T01:28:45;2.53;;;2.33;;
42194;SDS011;27863;49.440;11.102;2023-11-22T01:31:46;2.93;;;2.63;;
42194;SDS011;27863;49.440;11.102;2023-11-22T01:34:47;3.00;;;2.80;;
42194;SDS011;27863;49.440;11.102;2023-11-22T01:37:48;3.13;;;2.83;;
42194;SDS011;27863;49.440;11.102;2023-11-22T01:40:51;3.00;;;2.80;;
42194;SDS011;27863;49.440;11.102;2023-11-22T01:43:51;2.80;;;2.60;;
42194;SDS011;27863;49.440;11.102;2023-11-22T01:46:52;3.73;;;3.10;;
42194;SDS011;27863;49.440;11.102;2023-11-22T01:49:52;2.60;;;2.40;;
42194;SDS011;27863;49.440;11.102;2023-11-22T01:52:54;3.77;;;3.07;;
42194;SDS011;27863;49.440;11.102;2023-11-22T01:55:55;3.60;;;3.10;;
42194;SDS011;27863;49.440;11.102;2023-11-22T01:58:56;3.80;;;3.07;;
42194;SDS011;27863;49.440;11.102;2023-11-22T02:01:57;3.77;;;3.23;;
42194;SDS011;27863;49.440;11.102;2023-11-22T02:04:59;3.30;;;3.00;;
42194;SDS011;27863;49.440;11.102;2023-11-22T02:08:00;4.07;;;3.07;;
42194;SDS011;27863;49.440;11.102;2023-11-22T02:11:01;4.13;;;3.20;;
42194;SDS011;27863;49.440;11.102;2023-11-22T02:14:05;3.50;;;3.20;;
42194;SDS011;27863;49.440;11.102;2023-11-22T02:17:07;4.23;;;3.90;;
42194;SDS011;27863;49.440;11.102;2023-11-22T02:20:09;4.30;;;3.90;;
42194;SDS011;27863;49.440;11.102;2023-11-22T02:23:11;3.43;;;3.13;;
42194;SDS011;27863;49.440;11.102;2023-11-22T02:26:11;6.37;;;3.67;;
42194;SDS011;27863;49.440;11.102;2023-11-22T02:29:12;5.10;;;3.97;;
42194;SDS011;27863;49.440;11.102;2023-11-22T02:32:13;4.50;;;4.10;;
42194;SDS011;27863;49.440;11.102;2023-11-22T02:35:14;4.07;;;3.67;;
42194;SDS011;27863;49.440;11.102;2023-11-22T02:38:16;4.40;;;4.00;;
42194;SDS011;27863;49.440;11.102;2023-11-22T02:41:18;3.63;;;3.23;;
42194;SDS011;27863;49.440;11.102;2023-11-22T02:44:18;4.20;;;3.80;;
42194;SDS011;27863;49.440;11.102;2023-11-22T02:47:19;4.13;;;3.73;;
42194;SDS011;27863;49.440;11.102;2023-11-22T02:50:19;4.53;;;4.13;;
42194;SDS011;27863;49.440;11.102;2023-11-22T02:53:20;3.70;;;3.23;;
42194;SDS011;27863;49.440;11.102;2023-11-22T02:56:21;3.53;;;2.80;;
42194;SDS011;27863;49.440;11.102;2023-11-22T02:59:22;2.80;;;2.60;;
42194;SDS011;27863;49.440;11.102;2023-11-22T03:02:23;3.60;;;3.30;;
42194;SDS011;27863;49.440;11.102;2023-11-22T03:05:24;3.73;;;3.43;;
42194;SDS011;27863;49.440;11.102;2023-11-22T03:08:24;3.40;;;3.10;;
42194;SDS011;27863;49.440;11.102;2023-11-22T03:11:25;4.23;;;3.83;;
42194;SDS011;27863;49.440;11.102;2023-11-22T03:14:25;4.10;;;3.70;;
42194;SDS011;27863;49.440;11.102;2023-11-22T03:17:26;4.80;;;4.00;;
42194;SDS011;27863;49.440;11.102;2023-11-22T03:20:28;3.60;;;3.30;;
42194;SDS011;27863;49.440;11.102;2023-11-22T03:23:28;3.90;;;3.53;;
42194;SDS011;27863;49.440;11.102;2023-11-22T03:26:29;2.87;;;2.67;;
42194;SDS011;27863;49.440;11.102;2023-11-22T03:29:30;3.80;;;3.47;;
42194;SDS011;27863;49.440;11.102;2023-11-22T03:32:31;4.20;;;3.80;;
42194;SDS011;27863;49.440;11.102;2023-11-22T03:35:31;3.63;;;3.33;;
42194;SDS011;27863;49.440;11.102;2023-11-22T03:38:32;3.50;;;3.20;;
42194;SDS011;27863;49.440;11.102;2023-11-22T03:41:32;4.00;;;3.70;;
42194;SDS011;27863;49.440;11.102;2023-11-22T03:44:33;3.33;;;3.03;;
42194;SDS011;27863;49.440;11.102;2023-11-22T03:47:33;3.47;;;2.97;;
42194;SDS011;27863;49.440;11.102;2023-11-22T03:50:34;3.57;;;3.27;;
42194;SDS011;27863;49.440;11.102;2023-11-22T03:53:34;3.73;;;3.20;;
42194;SDS011;27863;49.440;11.102;2023-11-22T03:56:34;3.87;;;3.47;;
42194;SDS011;27863;49.440;11.102;2023-11-22T03:59:35;2.93;;;2.73;;
42194;SDS011;27863;49.440;11.102;2023-11-22T04:02:35;3.57;;;3.27;;
42194;SDS011;27863;49.440;11.102;2023-11-22T04:05:37;3.47;;;3.17;;
42194;SDS011;27863;49.440;11.102;2023-11-22T04:08:38;3.80;;;3.50;;
42194;SDS011;27863;49.440;11.102;2023-11-22T04:11:39;4.40;;;4.00;;
42194;SDS011;27863;49.440;11.102;2023-11-22T04:14:39;3.67;;;3.37;;
42194;SDS011;27863;49.440;11.102;2023-11-22T04:17:40;3.57;;;3.27;;
42194;SDS011;27863;49.440;11.102;2023-11-22T04:20:42;3.53;;;3.23;;
42194;SDS011;27863;49.440;11.102;2023-11-22T04:23:44;3.50;;;3.20;;
42194;SDS011;27863;49.440;11.102;2023-11-22T04:26:45;3.60;;;3.30;;
42194;SDS011;27863;49.440;11.102;2023-11-22T04:29:45;3.83;;;3.40;;
42194;SDS011;27863;49.440;11.102;2023-11-22T04:32:46;3.33;;;3.07;;
42194;SDS011;27863;49.440;11.102;2023-11-22T04:35:48;3.80;;;3.47;;
42194;SDS011;27863;49.440;11.102;2023-11-22T04:38:49;3.90;;;3.50;;
42194;SDS011;27863;49.440;11.102;2023-11-22T04:41:50;4.20;;;3.87;;
42194;SDS011;27863;49.440;11.102;2023-11-22T04:44:51;3.20;;;3.00;;
42194;SDS011;27863;49.440;11.102;2023-11-22T04:47:51;4.50;;;3.40;;
42194;SDS011;27863;49.440;11.102;2023-11-22T04:50:52;3.80;;;3.40;;
42194;SDS011;27863;49.440;11.102;2023-11-22T04:53:52;3.53;;;3.23;;
42194;SDS011;27863;49.440;11.102;2023-11-22T04:56:52;3.50;;;3.20;;
42194;SDS011;27863;49.440;11.102;2023-11-22T04:59:53;4.20;;;3.80;;
42194;SDS011;27863;49.440;11.102;2023-11-22T05:02:54;4.60;;;4.10;;
42194;SDS011;27863;49.440;11.102;2023-11-22T05:05:54;3.47;;;3.17;;
42194;SDS011;27863;49.440;11.102;2023-11-22T05:08:55;4.27;;;3.87;;
42194;SDS011;27863;49.440;11.102;2023-11-22T05:11:55;4.33;;;3.93;;
42194;SDS011;27863;49.440;11.102;2023-11-22T05:14:55;3.90;;;3.60;;
42194;SDS011;27863;49.440;11.102;2023-11-22T05:17:56;4.37;;;3.93;;
42194;SDS011;27863;49.440;11.102;2023-11-22T05:20:56;4.40;;;4.00;;
42194;SDS011;27863;49.440;11.102;2023-11-22T05:23:57;4.63;;;4.23;;
42194;SDS011;27863;49.440;11.102;2023-11-22T05:26:58;4.10;;;3.70;;
42194;SDS011;27863;49.440;11.102;2023-11-22T05:29:58;4.50;;;3.80;;
42194;SDS011;27863;49.440;11.102;2023-11-22T05:33:00;4.40;;;4.00;;
42194;SDS011;27863;49.440;11.102;2023-11-22T05:36:00;4.70;;;4.30;;
42194;SDS011;27863;49.440;11.102;2023-11-22T05:39:01;6.50;;;4.30;;
42194;SDS011;27863;49.440;11.102;2023-11-22T05:42:04;5.00;;;4.50;;
42194;SDS011;27863;49.440;11.102;2023-11-22T05:45:04;4.63;;;4.23;;
42194;SDS011;27863;49.440;11.102;2023-11-22T05:48:05;4.67;;;4.27;;
42194;SDS011;27863;49.440;11.102;2023-11-22T05:51:09;5.83;;;5.20;;
42194;SDS011;27863;49.440;11.102;2023-11-22T05:54:10;6.30;;;5.53;;
42194;SDS011;27863;49.440;11.102;2023-11-22T05:57:13;7.67;;;6.93;;
42194;SDS011;27863;49.440;11.102;2023-11-22T06:00:13;6.47;;;5.90;;
42194;SDS011;27863;49.440;11.102;2023-11-22T06:03:17;6.53;;;5.93;;
42194;SDS011;27863;49.440;11.102;2023-11-22T06:06:17;5.83;;;5.23;;
42194;SDS011;27863;49.440;11.102;2023-11-22T06:09:18;6.37;;;5.73;;
42194;SDS011;27863;49.440;11.102;2023-11-22T06:12:18;7.00;;;6.30;;
42194;SDS011;27863;49.440;11.102;2023-11-22T06:15:20;8.27;;;5.87;;
42194;SDS011;27863;49.440;11.102;2023-11-22T06:18:22;5.73;;;5.10;;
42194;SDS011;27863;49.440;11.102;2023-11-22T06:21:29;5.47;;;4.97;;
42194;SDS011;27863;49.440;11.102;2023-11-22T06:24:30;6.33;;;5.70;;
42194;SDS011;27863;49.440;11.102;2023-11-22T06:27:33;6.80;;;6.20;;
42194;SDS011;27863;49.440;11.102;2023-11-22T06:30:33;6.13;;;5.53;;
42194;SDS011;27863;49.440;11.102;2023-11-22T06:33:35;6.10;;;5.10;;
42194;SDS011;27863;49.440;11.102;2023-11-22T06:36:36;6.70;;;6.10;;
42194;SDS011;27863;49.440;11.102;2023-11-22T06:39:36;5.93;;;5.40;;
42194;SDS011;27863;49.440;11.102;2023-11-22T06:42:37;8.13;;;6.53;;
42194;SDS011;27863;49.440;11.102;2023-11-22T06:45:38;6.77;;;6.17;;
42194;SDS011;27863;49.440;11.102;2023-11-22T06:48:39;6.03;;;5.43;;
42194;SDS011;27863;49.440;11.102;2023-11-22T06:51:40;6.40;;;5.80;;
42194;SDS011;27863;49.440;11.102;2023-11-22T06:54:40;7.67;;;6.97;;
42194;SDS011;27863;49.440;11.102;2023-11-22T06:57:41;6.93;;;6.30;;
42194;SDS011;27863;49.440;11.102;2023-11-22T07:00:42;7.67;;;6.97;;
42194;SDS011;27863;49.440;11.102;2023-11-22T07:03:43;6.20;;;5.70;;
42194;SDS011;27863;49.440;11.102;2023-11-22T07:06:43;7.53;;;6.43;;
42194;SDS011;27863;49.440;11.102;2023-11-22T07:09:44;5.93;;;5.03;;
42194;SDS011;27863;49.440;11.102;2023-11-22T07:12:45;6.47;;;5.87;;
42194;SDS011;27863;49.440;11.102;2023-11-22T07:15:45;7.53;;;6.10;;
42194;SDS011;27863;49.440;11.102;2023-11-22T07:18:45;7.77;;;6.97;;
42194;SDS011;27863;49.440;11.102;2023-11-22T07:21:47;7.13;;;6.43;;
42194;SDS011;27863;49.440;11.102;2023-11-22T07:24:48;6.30;;;5.67;;
42194;SDS011;27863;49.440;11.102;2023-11-22T07:27:52;7.57;;;6.87;;
42194;SDS011;27863;49.440;11.102;2023-11-22T07:30:53;7.27;;;6.30;;
42194;SDS011;27863;49.440;11.102;2023-11-22T07:33:54;8.07;;;6.20;;
42194;SDS011;27863;49.440;11.102;2023-11-22T07:36:54;6.10;;;5.53;;
42194;SDS011;27863;49.440;11.102;2023-11-22T07:39:54;5.67;;;5.17;;
42194;SDS011;27863;49.440;11.102;2023-11-22T07:42:55;5.53;;;5.07;;
42194;SDS011;27863;49.440;11.102;2023-11-22T07:45:56;5.83;;;5.23;;
42194;SDS011;27863;49.440;11.102;2023-11-22T07:48:59;5.17;;;4.53;;
42194;SDS011;27863;49.440;11.102;2023-11-22T07:52:00;7.00;;;5.60;;
42194;SDS011;27863;49.440;11.102;2023-11-22T07:55:01;6.40;;;5.83;;
42194;SDS011;27863;49.440;11.102;2023-11-22T07:58:03;7.87;;;7.20;;
42194;SDS011;27863;49.440;11.102;2023-11-22T08:01:06;8.03;;;7.13;;
42194;SDS011;27863;49.440;11.102;2023-11-22T08:04:13;8.60;;;7.70;;
42194;SDS011;27863;49.440;11.102;2023-11-22T08:07:14;8.43;;;7.57;;
42194;SDS011;27863;49.440;11.102;2023-11-22T08:10:15;7.90;;;7.10;;
42194;SDS011;27863;49.440;11.102;2023-11-22T08:13:21;7.90;;;7.20;;
42194;SDS011;27863;49.440;11.102;2023-11-22T08:16:24;8.63;;;7.83;;
42194;SDS011;27863;49.440;11.102;2023-11-22T08:19:25;9.63;;;7.13;;
42194;SDS011;27863;49.440;11.102;2023-11-22T08:22:27;8.60;;;7.80;;
42194;SDS011;27863;49.440;11.102;2023-11-22T08:25:29;11.87;;;7.33;;
42194;SDS011;27863;49.440;11.102;2023-11-22T08:28:30;11.10;;;8.13;;
42194;SDS011;27863;49.440;11.102;2023-11-22T08:31:30;8.73;;;7.27;;
42194;SDS011;27863;49.440;11.102;2023-11-22T08:34:30;9.13;;;8.13;;
42194;SDS011;27863;49.440;11.102;2023-11-22T08:37:31;9.63;;;8.30;;
42194;SDS011;27863;49.440;11.102;2023-11-22T08:40:35;8.37;;;7.57;;
42194;SDS011;27863;49.440;11.102;2023-11-22T08:43:37;9.57;;;8.03;;
42194;SDS011;27863;49.440;11.102;2023-11-22T08:46:37;8.53;;;7.73;;
42194;SDS011;27863;49.440;11.102;2023-11-22T08:49:38;10.00;;;8.13;;
42194;SDS011;27863;49.440;11.102;2023-11-22T08:52:39;8.37;;;7.47;;
42194;SDS011;27863;49.440;11.102;2023-11-22T08:55:39;8.87;;;7.97;;
42194;SDS011;27863;49.440;11.102;2023-11-22T08:58:40;8.47;;;7.53;;
42194;SDS011;27863;49.440;11.102;2023-11-22T09:01:40;10.20;;;9.20;;
42194;SDS011;27863;49.440;11.102;2023-11-22T09:04:42;8.80;;;7.30;;
42194;SDS011;27863;49.440;11.102;2023-11-22T09:07:43;9.53;;;8.57;;
42194;SDS011;27863;49.440;11.102;2023-11-22T09:10:44;8.77;;;7.87;;
42194;SDS011;27863;49.440;11.102;2023-11-22T09:13:46;8.57;;;7.77;;
42194;SDS011;27863;49.440;11.102;2023-11-22T09:16:46;8.83;;;7.93;;
42194;SDS011;27863;49.440;11.102;2023-11-22T09:19:54;8.57;;;7.77;;
42194;SDS011;27863;49.440;11.102;2023-11-22T09:22:56;9.17;;;8.30;;
42194;SDS011;27863;49.440;11.102;2023-11-22T09:25:56;9.53;;;7.93;;
42194;SDS011;27863;49.440;11.102;2023-11-22T09:28:57;8.33;;;7.63;;
42194;SDS011;27863;49.440;11.102;2023-11-22T09:31:59;8.43;;;7.63;;
42194;SDS011;27863;49.440;11.102;2023-11-22T09:35:01;8.20;;;7.33;;
42194;SDS011;27863;49.440;11.102;2023-11-22T09:38:02;7.97;;;7.23;;
42194;SDS011;27863;49.440;11.102;2023-11-22T09:41:03;7.57;;;6.87;;
42194;SDS011;27863;49.440;11.102;2023-11-22T09:44:04;10.03;;;7.30;;
42194;SDS011;27863;49.440;11.102;2023-11-22T09:47:05;7.93;;;7.13;;
42194;SDS011;27863;49.440;11.102;2023-11-22T09:50:06;8.50;;;7.70;;
42194;SDS011;27863;49.440;11.102;2023-11-22T09:53:11;10.93;;;8.13;;
42194;SDS011;27863;49.440;11.102;2023-11-22T09:56:21;8.63;;;7.83;;
42194;SDS011;27863;49.440;11.102;2023-11-22T09:59:23;8.37;;;7.57;;
42194;SDS011;27863;49.440;11.102;2023-11-22T10:02:24;6.77;;;6.17;;
42194;SDS011;27863;49.440;11.102;2023-11-22T10:05:27;8.30;;;7.63;;
42194;SDS011;27863;49.440;11.102;2023-11-22T10:08:28;7.90;;;7.20;;
42194;SDS011;27863;49.440;11.102;2023-11-22T10:11:30;8.63;;;7.77;;
42194;SDS011;27863;49.440;11.102;2023-11-22T10:14:34;9.07;;;7.73;;
42194;SDS011;27863;49.440;11.102;2023-11-22T10:18:05;8.70;;;7.30;;
42194;SDS011;27863;49.440;11.102;2023-11-22T10:21:18;7.93;;;7.13;;
42194;SDS011;27863;49.440;11.102;2023-11-22T10:24:21;7.70;;;6.90;;
42194;SDS011;27863;49.440;11.102;2023-11-22T10:27:21;8.50;;;7.70;;
42194;SDS011;27863;49.440;11.102;2023-11-22T10:30:24;7.83;;;6.97;;
42194;SDS011;27863;49.440;11.102;2023-11-22T10:33:26;8.60;;;6.27;;
42194;SDS011;27863;49.440;11.102;2023-11-22T10:36:28;6.47;;;5.87;;
42194;SDS011;27863;49.440;11.102;2023-11-22T10:39:29;8.63;;;7.73;;
42194;SDS011;27863;49.440;11.102;2023-11-22T10:42:31;7.97;;;7.17;;
42194;SDS011;27863;49.440;11.102;2023-11-22T10:45:34;7.53;;;6.87;;
42194;SDS011;27863;49.440;11.102;2023-11-22T10:48:35;7.20;;;6.60;;
42194;SDS011;27863;49.440;11.102;2023-11-22T10:51:36;8.07;;;7.27;;
42194;SDS011;27863;49.440;11.102;2023-11-22T10:54:42;6.63;;;5.93;;
42194;SDS011;27863;49.440;11.102;2023-11-22T10:57:45;7.17;;;6.57;;
42194;SDS011;27863;49.440;11.102;2023-11-22T11:00:49;6.47;;;5.87;;
42194;SDS011;27863;49.440;11.102;2023-11-22T11:07:12;6.57;;;5.97;;
42194;SDS011;27863;49.440;11.102;2023-11-22T11:10:15;6.60;;;6.00;;
42194;SDS011;27863;49.440;11.102;2023-11-22T11:13:17;7.47;;;6.07;;
42194;SDS011;27863;49.440;11.102;2023-11-22T11:16:19;7.37;;;6.70;;
42194;SDS011;27863;49.440;11.102;2023-11-22T11:19:21;6.63;;;6.03;;
42194;SDS011;27863;49.440;11.102;2023-11-22T11:22:23;6.07;;;5.47;;
42194;SDS011;27863;49.440;11.102;2023-11-22T11:25:24;6.97;;;6.27;;
42194;SDS011;27863;49.440;11.102;2023-11-22T11:28:24;7.27;;;6.67;;
42194;SDS011;27863;49.440;11.102;2023-11-22T11:31:30;7.57;;;6.20;;
42194;SDS011;27863;49.440;11.102;2023-11-22T11:34:45;7.20;;;6.13;;
42194;SDS011;27863;49.440;11.102;2023-11-22T11:37:50;6.50;;;6.00;;
42194;SDS011;27863;49.440;11.102;2023-11-22T11:41:09;5.90;;;5.40;;
42194;SDS011;27863;49.440;11.102;2023-11-22T11:44:18;6.70;;;5.80;;
42194;SDS011;27863;49.440;11.102;2023-11-22T11:47:21;7.03;;;6.37;;
42194;SDS011;27863;49.440;11.102;2023-11-22T11:50:22;6.80;;;6.20;;
42194;SDS011;27863;49.440;11.102;2023-11-22T11:53:23;6.90;;;6.33;;
42194;SDS011;27863;49.440;11.102;2023-11-22T11:56:24;6.33;;;5.77;;
42194;SDS011;27863;49.440;11.102;2023-11-22T11:59:26;6.40;;;5.80;;
42194;SDS011;27863;49.440;11.102;2023-11-22T12:02:27;6.67;;;6.00;;
42194;SDS011;27863;49.440;11.102;2023-11-22T12:05:28;7.30;;;6.70;;
42194;SDS011;27863;49.440;11.102;2023-11-22T12:08:30;6.60;;;6.00;;
42194;SDS011;27863;49.440;11.102;2023-11-22T12:11:36;7.23;;;6.53;;
42194;SDS011;27863;49.440;11.102;2023-11-22T12:14:36;6.70;;;6.00;;
42194;SDS011;27863;49.440;11.102;2023-11-22T12:17:37;6.83;;;6.20;;
42194;SDS011;27863;49.440;11.102;2023-11-22T12:20:38;8.30;;;6.43;;
42194;SDS011;27863;49.440;11.102;2023-11-22T12:23:39;6.33;;;5.73;;
42194;SDS011;27863;49.440;11.102;2023-11-22T12:26:44;6.93;;;5.77;;
42194;SDS011;27863;49.440;11.102;2023-11-22T12:29:45;6.53;;;5.90;;
42194;SDS011;27863;49.440;11.102;2023-11-22T12:32:47;5.90;;;5.30;;
42194;SDS011;27863;49.440;11.102;2023-11-22T12:35:48;6.20;;;5.60;;
42194;SDS011;27863;49.440;11.102;2023-11-22T12:38:50;6.30;;;5.70;;
42194;SDS011;27863;49.440;11.102;2023-11-22T12:41:51;6.30;;;5.70;;
42194;SDS011;27863;49.440;11.102;2023-11-22T12:44:52;6.40;;;5.80;;
42194;SDS011;27863;49.440;11.102;2023-11-22T12:47:53;6.37;;;5.77;;
42194;SDS011;27863;49.440;11.102;2023-11-22T12:50:56;6.27;;;5.67;;
42194;SDS011;27863;49.440;11.102;2023-11-22T12:53:57;6.67;;;6.07;;
42194;SDS011;27863;49.440;11.102;2023-11-22T12:56:57;6.13;;;5.53;;
42194;SDS011;27863;49.440;11.102;2023-11-22T12:59:58;6.23;;;5.53;;
42194;SDS011;27863;49.440;11.102;2023-11-22T13:02:59;6.03;;;4.63;;
42194;SDS011;27863;49.440;11.102;2023-11-22T13:05:59;6.07;;;5.47;;
42194;SDS011;27863;49.440;11.102;2023-11-22T13:09:01;6.07;;;5.47;;
42194;SDS011;27863;49.440;11.102;2023-11-22T13:12:01;7.47;;;6.10;;
42194;SDS011;27863;49.440;11.102;2023-11-22T13:15:02;6.50;;;5.80;;
42194;SDS011;27863;49.440;11.102;2023-11-22T13:18:04;5.63;;;5.07;;
42194;SDS011;27863;49.440;11.102;2023-11-22T13:21:06;6.37;;;5.63;;
42194;SDS011;27863;49.440;11.102;2023-11-22T13:24:07;6.57;;;5.90;;
42194;SDS011;27863;49.440;11.102;2023-11-22T13:27:09;6.13;;;5.50;;
42194;SDS011;27863;49.440;11.102;2023-11-22T13:30:10;6.70;;;5.80;;
42194;SDS011;27863;49.440;11.102;2023-11-22T13:33:11;6.57;;;5.83;;
42194;SDS011;27863;49.440;11.102;2023-11-22T13:36:13;5.50;;;5.00;;
42194;SDS011;27863;49.440;11.102;2023-11-22T13:39:14;7.20;;;5.90;;
42194;SDS011;27863;49.440;11.102;2023-11-22T13:42:15;5.97;;;5.37;;
42194;SDS011;27863;49.440;11.102;2023-11-22T13:45:16;7.63;;;5.50;;
42194;SDS011;27863;49.440;11.102;2023-11-22T13:48:19;6.87;;;6.17;;
42194;SDS011;27863;49.440;11.102;2023-11-22T13:51:23;5.20;;;4.70;;
42194;SDS011;27863;49.440;11.102;2023-11-22T13:54:25;9.23;;;7.63;;
42194;SDS011;27863;49.440;11.102;2023-11-22T13:57:25;5.93;;;5.37;;
42194;SDS011;27863;49.440;11.102;2023-11-22T14:00:26;8.17;;;5.47;;
42194;SDS011;27863;49.440;11.102;2023-11-22T14:03:32;7.93;;;7.13;;
42194;SDS011;27863;49.440;11.102;2023-11-22T14:06:33;6.30;;;5.73;;
42194;SDS011;27863;49.440;11.102;2023-11-22T14:09:33;6.00;;;5.40;;
42194;SDS011;27863;49.440;11.102;2023-11-22T14:12:37;6.83;;;5.87;;
42194;SDS011;27863;49.440;11.102;2023-11-22T14:15:38;6.97;;;6.37;;
42194;SDS011;27863;49.440;11.102;2023-11-22T14:18:38;7.67;;;6.97;;
42194;SDS011;27863;49.440;11.102;2023-11-22T14:21:39;6.37;;;5.77;;
42194;SDS011;27863;49.440;11.102;2023-11-22T14:24:40;6.20;;;5.60;;
42194;SDS011;27863;49.440;11.102;2023-11-22T14:27:41;6.73;;;6.00;;
42194;SDS011;27863;49.440;11.102;2023-11-22T14:30:42;6.70;;;6.03;;
42194;SDS011;27863;49.440;11.102;2023-11-22T14:33:43;6.80;;;5.90;;
42194;SDS011;27863;49.440;11.102;2023-11-22T14:36:44;6.57;;;5.97;;
42194;SDS011;27863;49.440;11.102;2023-11-22T14:39:45;7.27;;;6.60;;
42194;SDS011;27863;49.440;11.102;2023-11-22T14:42:46;6.33;;;5.80;;
42194;SDS011;27863;49.440;11.102;2023-11-22T14:45:51;6.73;;;6.03;;
42194;SDS011;27863;49.440;11.102;2023-11-22T14:48:52;6.93;;;6.23;;
42194;SDS011;27863;49.440;11.102;2023-11-22T14:51:53;7.67;;;6.90;;
42194;SDS011;27863;49.440;11.102;2023-11-22T14:54:54;7.97;;;7.17;;
42194;SDS011;27863;49.440;11.102;2023-11-22T14:57:56;7.00;;;6.40;;
42194;SDS011;27863;49.440;11.102;2023-11-22T15:00:59;7.70;;;7.03;;
42194;SDS011;27863;49.440;11.102;2023-11-22T15:03:59;7.17;;;6.47;;
42194;SDS011;27863;49.440;11.102;2023-11-22T15:07:00;7.27;;;6.57;;
42194;SDS011;27863;49.440;11.102;2023-11-22T15:10:00;7.20;;;6.50;;
42194;SDS011;27863;49.440;11.102;2023-11-22T15:13:01;8.30;;;6.77;;
42194;SDS011;27863;49.440;11.102;2023-11-22T15:16:02;7.43;;;6.73;;
42194;SDS011;27863;49.440;11.102;2023-11-22T15:19:03;7.13;;;6.53;;
42194;SDS011;27863;49.440;11.102;2023-11-22T15:22:05;8.20;;;7.30;;
42194;SDS011;27863;49.440;11.102;2023-11-22T15:25:06;8.97;;;8.07;;
42194;SDS011;27863;49.440;11.102;2023-11-22T15:28:07;8.20;;;7.43;;
42194;SDS011;27863;49.440;11.102;2023-11-22T15:31:09;7.93;;;6.50;;
42194;SDS011;27863;49.440;11.102;2023-11-22T15:34:09;7.87;;;7.07;;
42194;SDS011;27863;49.440;11.102;2023-11-22T15:37:13;10.83;;;9.83;;
42194;SDS011;27863;49.440;11.102;2023-11-22T15:40:16;13.47;;;11.50;;
42194;SDS011;27863;49.440;11.102;2023-11-22T15:43:17;12.20;;;9.33;;
42194;SDS011;27863;49.440;11.102;2023-11-22T15:46:18;10.93;;;10.00;;
42194;SDS011;27863;49.440;11.102;2023-11-22T15:49:24;8.50;;;7.57;;
42194;SDS011;27863;49.440;11.102;2023-11-22T15:52:24;8.97;;;8.07;;
42194;SDS011;27863;49.440;11.102;2023-11-22T15:55:26;9.83;;;8.77;;
42194;SDS011;27863;49.440;11.102;2023-11-22T15:58:28;7.97;;;7.17;;
42194;SDS011;27863;49.440;11.102;2023-11-22T16:01:28;7.83;;;7.13;;
42194;SDS011;27863;49.440;11.102;2023-11-22T16:04:31;9.77;;;7.47;;
42194;SDS011;27863;49.440;11.102;2023-11-22T16:07:31;9.03;;;8.33;;
42194;SDS011;27863;49.440;11.102;2023-11-22T16:10:32;8.33;;;7.37;;
42194;SDS011;27863;49.440;11.102;2023-11-22T16:13:32;8.77;;;7.93;;
42194;SDS011;27863;49.440;11.102;2023-11-22T16:16:33;8.77;;;7.93;;
42194;SDS011;27863;49.440;11.102;2023-11-22T16:19:33;8.67;;;7.87;;
42194;SDS011;27863;49.440;11.102;2023-11-22T16:22:34;7.87;;;7.07;;
42194;SDS011;27863;49.440;11.102;2023-11-22T16:25:38;9.43;;;8.63;;
42194;SDS011;27863;49.440;11.102;2023-11-22T16:28:39;8.70;;;7.90;;
42194;SDS011;27863;49.440;11.102;2023-11-22T16:31:39;8.53;;;7.80;;
42194;SDS011;27863;49.440;11.102;2023-11-22T16:34:40;8.73;;;7.83;;
42194;SDS011;27863;49.440;11.102;2023-11-22T16:37:40;12.73;;;8.97;;
42194;SDS011;27863;49.440;11.102;2023-11-22T16:40:41;9.40;;;8.50;;
42194;SDS011;27863;49.440;11.102;2023-11-22T16:43:41;9.03;;;8.17;;
42194;SDS011;27863;49.440;11.102;2023-11-22T16:46:45;13.50;;;8.37;;
42194;SDS011;27863;49.440;11.102;2023-11-22T16:49:49;9.57;;;8.67;;
42194;SDS011;27863;49.440;11.102;2023-11-22T16:52:50;9.77;;;8.73;;
42194;SDS011;27863;49.440;11.102;2023-11-22T16:55:51;8.47;;;7.77;;
42194;SDS011;27863;49.440;11.102;2023-11-22T16:58:53;8.57;;;7.77;;
42194;SDS011;27863;49.440;11.102;2023-11-22T17:01:56;8.43;;;7.53;;
42194;SDS011;27863;49.440;11.102;2023-11-22T17:04:56;9.03;;;7.40;;
42194;SDS011;27863;49.440;11.102;2023-11-22T17:07:57;8.60;;;7.70;;
42194;SDS011;27863;49.440;11.102;2023-11-22T17:10:58;9.00;;;8.10;;
42194;SDS011;27863;49.440;11.102;2023-11-22T17:13:58;8.30;;;7.50;;
42194;SDS011;27863;49.440;11.102;2023-11-22T17:16:59;10.13;;;8.37;;
42194;SDS011;27863;49.440;11.102;2023-11-22T17:19:59;9.70;;;8.53;;
42194;SDS011;27863;49.440;11.102;2023-11-22T17:23:00;8.80;;;8.00;;
42194;SDS011;27863;49.440;11.102;2023-11-22T17:26:00;8.30;;;7.50;;
42194;SDS011;27863;49.440;11.102;2023-11-22T17:29:01;9.23;;;8.33;;
42194;SDS011;27863;49.440;11.102;2023-11-22T17:32:02;10.13;;;8.60;;
42194;SDS011;27863;49.440;11.102;2023-11-22T17:35:04;13.97;;;9.10;;
42194;SDS011;27863;49.440;11.102;2023-11-22T17:38:04;9.73;;;8.43;;
42194;SDS011;27863;49.440;11.102;2023-11-22T17:41:05;8.73;;;7.90;;
42194;SDS011;27863;49.440;11.102;2023-11-22T17:44:08;8.93;;;8.13;;
42194;SDS011;27863;49.440;11.102;2023-11-22T17:47:09;13.93;;;9.57;;
42194;SDS011;27863;49.440;11.102;2023-11-22T17:50:10;8.87;;;7.97;;
42194;SDS011;27863;49.440;11.102;2023-11-22T17:53:11;10.50;;;9.50;;
42194;SDS011;27863;49.440;11.102;2023-11-22T17:56:11;8.37;;;7.57;;
42194;SDS011;27863;49.440;11.102;2023-11-22T17:59:12;10.50;;;9.27;;